sensor_id;sensor_type;location;lat;lon;timestamp;temperature;humidity
20337;DHT22;10326;53.660;10.200;2023-03-01T00:01:08;3.40;57.40
20337;DHT22;10326;53.660;10.200;2023-03-01T00:03:36;3.40;57.40
20337;DHT22;10326;53.660;10.200;2023-03-01T00:06:05;3.40;57.50
20337;DHT22;10326;53.660;10.200;2023-03-01T00:08:32;3.40;57.50
20337;DHT22;10326;53.660;10.200;2023-03-01T00:11:03;3.40;57.60
20337;DHT22;10326;53.660;10.200;2023-03-01T00:13:31;3.40;57.80
20337;DHT22;10326;53.660;10.200;2023-03-01T00:16:01;3.40;57.70
20337;DHT22;10326;53.660;10.200;2023-03-01T00:18:29;3.40;57.80
20337;DHT22;10326;53.660;10.200;2023-03-01T00:20:56;3.40;57.60
20337;DHT22;10326;53.660;10.200;2023-03-01T00:23:24;3.40;57.70
20337;DHT22;10326;53.660;10.200;2023-03-01T00:25:52;3.40;57.70
20337;DHT22;10326;53.660;10.200;2023-03-01T00:28:21;3.40;58.10
20337;DHT22;10326;53.660;10.200;2023-03-01T00:30:49;3.30;57.80
20337;DHT22;10326;53.660;10.200;2023-03-01T00:33:16;3.30;57.80
20337;DHT22;10326;53.660;10.200;2023-03-01T00:35:44;3.30;57.80
20337;DHT22;10326;53.660;10.200;2023-03-01T00:38:12;3.30;57.90
20337;DHT22;10326;53.660;10.200;2023-03-01T00:40:39;3.30;57.90
20337;DHT22;10326;53.660;10.200;2023-03-01T00:43:06;3.30;57.90
20337;DHT22;10326;53.660;10.200;2023-03-01T00:45:34;3.30;58.00
20337;DHT22;10326;53.660;10.200;2023-03-01T00:48:01;3.30;58.10
20337;DHT22;10326;53.660;10.200;2023-03-01T00:50:29;3.30;58.00
20337;DHT22;10326;53.660;10.200;2023-03-01T00:52:56;3.30;58.00
20337;DHT22;10326;53.660;10.200;2023-03-01T00:55:24;3.30;58.10
20337;DHT22;10326;53.660;10.200;2023-03-01T00:57:51;3.20;58.10
20337;DHT22;10326;53.660;10.200;2023-03-01T01:00:20;3.20;58.10
20337;DHT22;10326;53.660;10.200;2023-03-01T01:02:49;3.20;58.20
20337;DHT22;10326;53.660;10.200;2023-03-01T01:05:16;3.20;58.30
20337;DHT22;10326;53.660;10.200;2023-03-01T01:07:46;3.20;58.30
20337;DHT22;10326;53.660;10.200;2023-03-01T01:10:14;3.20;58.30
20337;DHT22;10326;53.660;10.200;2023-03-01T01:12:44;3.20;58.40
20337;DHT22;10326;53.660;10.200;2023-03-01T01:15:11;3.20;58.40
20337;DHT22;10326;53.660;10.200;2023-03-01T01:17:40;3.20;58.40
20337;DHT22;10326;53.660;10.200;2023-03-01T01:20:10;3.20;58.40
20337;DHT22;10326;53.660;10.200;2023-03-01T01:22:38;3.20;58.50
20337;DHT22;10326;53.660;10.200;2023-03-01T01:25:06;3.20;58.40
20337;DHT22;10326;53.660;10.200;2023-03-01T01:27:34;3.10;58.40
20337;DHT22;10326;53.660;10.200;2023-03-01T01:30:01;3.10;58.50
20337;DHT22;10326;53.660;10.200;2023-03-01T01:32:29;3.10;58.50
20337;DHT22;10326;53.660;10.200;2023-03-01T01:34:56;3.10;58.50
20337;DHT22;10326;53.660;10.200;2023-03-01T01:37:25;3.10;58.50
20337;DHT22;10326;53.660;10.200;2023-03-01T01:39:57;3.10;58.70
20337;DHT22;10326;53.660;10.200;2023-03-01T01:42:25;3.00;58.60
20337;DHT22;10326;53.660;10.200;2023-03-01T01:45:27;3.00;58.60
20337;DHT22;10326;53.660;10.200;2023-03-01T01:47:59;3.00;59.00
20337;DHT22;10326;53.660;10.200;2023-03-01T01:50:29;3.00;58.60
20337;DHT22;10326;53.660;10.200;2023-03-01T01:53:06;3.00;58.50
20337;DHT22;10326;53.660;10.200;2023-03-01T01:55:37;3.00;58.70
20337;DHT22;10326;53.660;10.200;2023-03-01T01:58:09;2.90;58.70
20337;DHT22;10326;53.660;10.200;2023-03-01T02:00:38;2.90;58.80
20337;DHT22;10326;53.660;10.200;2023-03-01T02:03:09;2.90;58.80
20337;DHT22;10326;53.660;10.200;2023-03-01T02:05:42;2.90;59.00
20337;DHT22;10326;53.660;10.200;2023-03-01T02:08:13;2.90;59.10
20337;DHT22;10326;53.660;10.200;2023-03-01T02:10:43;2.90;59.10
20337;DHT22;10326;53.660;10.200;2023-03-01T02:13:11;2.90;59.00
20337;DHT22;10326;53.660;10.200;2023-03-01T02:15:40;2.90;59.10
20337;DHT22;10326;53.660;10.200;2023-03-01T02:18:12;2.90;59.20
20337;DHT22;10326;53.660;10.200;2023-03-01T02:20:50;2.90;59.10
20337;DHT22;10326;53.660;10.200;2023-03-01T02:23:26;2.90;59.30
20337;DHT22;10326;53.660;10.200;2023-03-01T02:25:59;2.80;59.10
20337;DHT22;10326;53.660;10.200;2023-03-01T02:28:34;2.80;59.20
20337;DHT22;10326;53.660;10.200;2023-03-01T02:31:03;2.80;59.10
20337;DHT22;10326;53.660;10.200;2023-03-01T02:33:49;2.80;59.00
20337;DHT22;10326;53.660;10.200;2023-03-01T02:36:20;2.80;59.00
20337;DHT22;10326;53.660;10.200;2023-03-01T02:38:51;2.80;59.10
20337;DHT22;10326;53.660;10.200;2023-03-01T02:41:20;2.80;59.10
20337;DHT22;10326;53.660;10.200;2023-03-01T02:43:49;2.80;59.20
20337;DHT22;10326;53.660;10.200;2023-03-01T02:46:18;2.80;59.20
20337;DHT22;10326;53.660;10.200;2023-03-01T02:48:48;2.80;59.20
20337;DHT22;10326;53.660;10.200;2023-03-01T02:51:32;2.70;59.20
20337;DHT22;10326;53.660;10.200;2023-03-01T02:54:15;2.70;59.50
20337;DHT22;10326;53.660;10.200;2023-03-01T02:56:45;2.70;59.40
20337;DHT22;10326;53.660;10.200;2023-03-01T02:59:19;2.70;59.20
20337;DHT22;10326;53.660;10.200;2023-03-01T03:01:47;2.70;59.40
20337;DHT22;10326;53.660;10.200;2023-03-01T03:04:17;2.70;59.30
20337;DHT22;10326;53.660;10.200;2023-03-01T03:06:49;2.60;59.40
20337;DHT22;10326;53.660;10.200;2023-03-01T03:09:18;2.60;59.40
20337;DHT22;10326;53.660;10.200;2023-03-01T03:11:45;2.60;59.40
20337;DHT22;10326;53.660;10.200;2023-03-01T03:14:15;2.60;59.50
20337;DHT22;10326;53.660;10.200;2023-03-01T03:16:48;2.60;59.50
20337;DHT22;10326;53.660;10.200;2023-03-01T03:19:17;2.60;59.50
20337;DHT22;10326;53.660;10.200;2023-03-01T03:21:45;2.60;59.50
20337;DHT22;10326;53.660;10.200;2023-03-01T03:24:12;2.60;59.60
20337;DHT22;10326;53.660;10.200;2023-03-01T03:26:39;2.60;59.70
20337;DHT22;10326;53.660;10.200;2023-03-01T03:29:06;2.60;59.70
20337;DHT22;10326;53.660;10.200;2023-03-01T03:31:34;2.60;59.80
20337;DHT22;10326;53.660;10.200;2023-03-01T03:34:01;2.60;59.90
20337;DHT22;10326;53.660;10.200;2023-03-01T03:36:29;2.60;59.90
20337;DHT22;10326;53.660;10.200;2023-03-01T03:38:56;2.60;60.00
20337;DHT22;10326;53.660;10.200;2023-03-01T03:41:23;2.60;60.10
20337;DHT22;10326;53.660;10.200;2023-03-01T03:43:50;2.60;60.80
20337;DHT22;10326;53.660;10.200;2023-03-01T03:46:17;2.60;60.40
20337;DHT22;10326;53.660;10.200;2023-03-01T03:48:46;2.60;60.50
20337;DHT22;10326;53.660;10.200;2023-03-01T03:51:15;2.60;60.70
20337;DHT22;10326;53.660;10.200;2023-03-01T03:53:43;2.70;60.80
20337;DHT22;10326;53.660;10.200;2023-03-01T03:56:10;2.70;60.90
20337;DHT22;10326;53.660;10.200;2023-03-01T03:58:38;2.70;61.00
20337;DHT22;10326;53.660;10.200;2023-03-01T04:01:05;2.70;61.10
20337;DHT22;10326;53.660;10.200;2023-03-01T04:03:33;2.70;61.20
20337;DHT22;10326;53.660;10.200;2023-03-01T04:06:02;2.70;61.30
20337;DHT22;10326;53.660;10.200;2023-03-01T04:08:31;2.80;61.50
20337;DHT22;10326;53.660;10.200;2023-03-01T04:11:00;2.80;61.40
20337;DHT22;10326;53.660;10.200;2023-03-01T04:13:50;2.80;61.60
20337;DHT22;10326;53.660;10.200;2023-03-01T04:16:18;2.80;61.50
20337;DHT22;10326;53.660;10.200;2023-03-01T04:18:45;2.80;61.70
20337;DHT22;10326;53.660;10.200;2023-03-01T04:21:14;2.90;61.90
20337;DHT22;10326;53.660;10.200;2023-03-01T04:23:41;2.90;62.20
20337;DHT22;10326;53.660;10.200;2023-03-01T04:26:08;2.90;62.20
20337;DHT22;10326;53.660;10.200;2023-03-01T04:28:37;3.00;62.40
20337;DHT22;10326;53.660;10.200;2023-03-01T04:31:10;3.00;62.60
20337;DHT22;10326;53.660;10.200;2023-03-01T04:33:44;3.00;62.70
20337;DHT22;10326;53.660;10.200;2023-03-01T04:36:14;3.10;62.70
20337;DHT22;10326;53.660;10.200;2023-03-01T04:38:43;3.10;62.90
20337;DHT22;10326;53.660;10.200;2023-03-01T04:41:13;3.20;62.80
20337;DHT22;10326;53.660;10.200;2023-03-01T04:43:41;3.20;62.80
20337;DHT22;10326;53.660;10.200;2023-03-01T04:46:11;3.20;62.80
20337;DHT22;10326;53.660;10.200;2023-03-01T04:48:40;3.20;63.80
20337;DHT22;10326;53.660;10.200;2023-03-01T04:51:08;3.30;63.20
20337;DHT22;10326;53.660;10.200;2023-03-01T04:53:40;3.30;63.10
20337;DHT22;10326;53.660;10.200;2023-03-01T04:56:08;3.40;63.30
20337;DHT22;10326;53.660;10.200;2023-03-01T04:58:35;3.40;63.30
20337;DHT22;10326;53.660;10.200;2023-03-01T05:01:08;3.40;63.40
20337;DHT22;10326;53.660;10.200;2023-03-01T05:03:41;3.50;63.90
20337;DHT22;10326;53.660;10.200;2023-03-01T05:06:09;3.50;63.50
20337;DHT22;10326;53.660;10.200;2023-03-01T05:08:37;3.50;63.50
20337;DHT22;10326;53.660;10.200;2023-03-01T05:11:06;3.60;63.60
20337;DHT22;10326;53.660;10.200;2023-03-01T05:13:35;3.60;63.60
20337;DHT22;10326;53.660;10.200;2023-03-01T05:16:04;3.60;63.60
20337;DHT22;10326;53.660;10.200;2023-03-01T05:18:37;3.60;63.90
20337;DHT22;10326;53.660;10.200;2023-03-01T05:21:06;3.70;63.90
20337;DHT22;10326;53.660;10.200;2023-03-01T05:23:35;3.70;64.10
20337;DHT22;10326;53.660;10.200;2023-03-01T05:26:04;3.70;64.00
20337;DHT22;10326;53.660;10.200;2023-03-01T05:28:33;3.70;64.30
20337;DHT22;10326;53.660;10.200;2023-03-01T05:31:01;3.80;64.40
20337;DHT22;10326;53.660;10.200;2023-03-01T05:33:28;3.80;64.50
20337;DHT22;10326;53.660;10.200;2023-03-01T05:35:59;3.80;64.60
20337;DHT22;10326;53.660;10.200;2023-03-01T05:38:26;3.80;65.00
20337;DHT22;10326;53.660;10.200;2023-03-01T05:40:53;3.90;64.60
20337;DHT22;10326;53.660;10.200;2023-03-01T05:43:22;3.90;64.50
20337;DHT22;10326;53.660;10.200;2023-03-01T05:45:49;3.90;64.70
20337;DHT22;10326;53.660;10.200;2023-03-01T05:48:17;3.90;64.70
20337;DHT22;10326;53.660;10.200;2023-03-01T05:50:45;4.00;65.20
20337;DHT22;10326;53.660;10.200;2023-03-01T05:53:14;4.00;64.60
20337;DHT22;10326;53.660;10.200;2023-03-01T05:55:43;4.00;64.70
20337;DHT22;10326;53.660;10.200;2023-03-01T05:58:13;4.00;64.80
20337;DHT22;10326;53.660;10.200;2023-03-01T06:00:44;4.10;64.80
20337;DHT22;10326;53.660;10.200;2023-03-01T06:03:14;4.10;65.00
20337;DHT22;10326;53.660;10.200;2023-03-01T06:05:42;4.10;64.90
20337;DHT22;10326;53.660;10.200;2023-03-01T06:08:11;4.10;64.90
20337;DHT22;10326;53.660;10.200;2023-03-01T06:10:39;4.10;65.10
20337;DHT22;10326;53.660;10.200;2023-03-01T06:13:07;4.10;65.00
20337;DHT22;10326;53.660;10.200;2023-03-01T06:15:34;4.10;65.10
20337;DHT22;10326;53.660;10.200;2023-03-01T06:18:02;4.20;65.10
20337;DHT22;10326;53.660;10.200;2023-03-01T06:20:30;4.20;65.30
20337;DHT22;10326;53.660;10.200;2023-03-01T06:22:57;4.20;65.20
20337;DHT22;10326;53.660;10.200;2023-03-01T06:25:26;4.20;65.20
20337;DHT22;10326;53.660;10.200;2023-03-01T06:27:54;4.20;65.30
20337;DHT22;10326;53.660;10.200;2023-03-01T06:30:23;4.30;65.50
20337;DHT22;10326;53.660;10.200;2023-03-01T06:32:51;4.30;65.50
20337;DHT22;10326;53.660;10.200;2023-03-01T06:35:19;4.30;65.40
20337;DHT22;10326;53.660;10.200;2023-03-01T06:37:47;4.30;65.40
20337;DHT22;10326;53.660;10.200;2023-03-01T06:40:15;4.30;65.50
20337;DHT22;10326;53.660;10.200;2023-03-01T06:42:44;4.30;65.50
20337;DHT22;10326;53.660;10.200;2023-03-01T06:45:16;4.40;65.80
20337;DHT22;10326;53.660;10.200;2023-03-01T06:47:43;4.40;65.70
20337;DHT22;10326;53.660;10.200;2023-03-01T06:50:11;4.40;65.70
20337;DHT22;10326;53.660;10.200;2023-03-01T06:52:40;4.40;65.90
20337;DHT22;10326;53.660;10.200;2023-03-01T06:55:09;4.40;66.10
20337;DHT22;10326;53.660;10.200;2023-03-01T06:57:36;4.50;66.10
20337;DHT22;10326;53.660;10.200;2023-03-01T07:00:04;4.50;66.20
20337;DHT22;10326;53.660;10.200;2023-03-01T07:02:32;4.50;66.30
20337;DHT22;10326;53.660;10.200;2023-03-01T07:04:59;4.50;66.40
20337;DHT22;10326;53.660;10.200;2023-03-01T07:07:26;4.60;66.40
20337;DHT22;10326;53.660;10.200;2023-03-01T07:09:54;4.60;66.50
20337;DHT22;10326;53.660;10.200;2023-03-01T07:12:21;4.60;66.70
20337;DHT22;10326;53.660;10.200;2023-03-01T07:14:48;4.70;66.60
20337;DHT22;10326;53.660;10.200;2023-03-01T07:17:15;4.70;66.70
20337;DHT22;10326;53.660;10.200;2023-03-01T07:19:42;4.70;66.70
20337;DHT22;10326;53.660;10.200;2023-03-01T07:22:10;4.80;66.80
20337;DHT22;10326;53.660;10.200;2023-03-01T07:24:37;4.80;66.90
20337;DHT22;10326;53.660;10.200;2023-03-01T07:27:05;4.80;67.00
20337;DHT22;10326;53.660;10.200;2023-03-01T07:29:32;4.90;67.30
20337;DHT22;10326;53.660;10.200;2023-03-01T07:32:02;4.90;67.20
20337;DHT22;10326;53.660;10.200;2023-03-01T07:34:29;4.90;67.20
20337;DHT22;10326;53.660;10.200;2023-03-01T07:36:56;5.00;67.30
20337;DHT22;10326;53.660;10.200;2023-03-01T07:39:23;5.00;67.30
20337;DHT22;10326;53.660;10.200;2023-03-01T07:41:50;5.10;67.50
20337;DHT22;10326;53.660;10.200;2023-03-01T07:44:22;5.10;67.50
20337;DHT22;10326;53.660;10.200;2023-03-01T07:46:50;5.10;67.60
20337;DHT22;10326;53.660;10.200;2023-03-01T07:49:17;5.20;67.50
20337;DHT22;10326;53.660;10.200;2023-03-01T07:51:45;5.20;67.20
20337;DHT22;10326;53.660;10.200;2023-03-01T07:54:12;5.20;67.20
20337;DHT22;10326;53.660;10.200;2023-03-01T07:56:39;5.30;67.50
20337;DHT22;10326;53.660;10.200;2023-03-01T07:59:07;5.30;67.50
20337;DHT22;10326;53.660;10.200;2023-03-01T08:01:35;5.30;67.50
20337;DHT22;10326;53.660;10.200;2023-03-01T08:04:02;5.40;67.70
20337;DHT22;10326;53.660;10.200;2023-03-01T08:06:33;5.40;67.60
20337;DHT22;10326;53.660;10.200;2023-03-01T08:09:01;5.40;67.60
20337;DHT22;10326;53.660;10.200;2023-03-01T08:11:28;5.40;67.50
20337;DHT22;10326;53.660;10.200;2023-03-01T08:13:56;5.40;67.40
20337;DHT22;10326;53.660;10.200;2023-03-01T08:16:23;5.40;67.30
20337;DHT22;10326;53.660;10.200;2023-03-01T08:18:51;5.50;67.40
20337;DHT22;10326;53.660;10.200;2023-03-01T08:21:21;5.40;67.50
20337;DHT22;10326;53.660;10.200;2023-03-01T08:23:48;5.50;67.50
20337;DHT22;10326;53.660;10.200;2023-03-01T08:26:17;5.40;67.60
20337;DHT22;10326;53.660;10.200;2023-03-01T08:28:45;5.50;68.00
20337;DHT22;10326;53.660;10.200;2023-03-01T08:31:14;5.50;68.10
20337;DHT22;10326;53.660;10.200;2023-03-01T08:33:43;5.50;68.30
20337;DHT22;10326;53.660;10.200;2023-03-01T08:36:11;5.50;68.40
20337;DHT22;10326;53.660;10.200;2023-03-01T08:38:38;5.50;68.60
20337;DHT22;10326;53.660;10.200;2023-03-01T08:41:05;5.50;68.60
20337;DHT22;10326;53.660;10.200;2023-03-01T08:43:32;5.60;68.80
20337;DHT22;10326;53.660;10.200;2023-03-01T08:45:59;5.60;68.90
20337;DHT22;10326;53.660;10.200;2023-03-01T08:48:27;5.60;69.00
20337;DHT22;10326;53.660;10.200;2023-03-01T08:50:55;5.70;69.20
20337;DHT22;10326;53.660;10.200;2023-03-01T08:53:23;5.70;69.20
20337;DHT22;10326;53.660;10.200;2023-03-01T08:55:50;5.80;69.50
20337;DHT22;10326;53.660;10.200;2023-03-01T08:58:18;5.80;69.60
20337;DHT22;10326;53.660;10.200;2023-03-01T09:00:45;5.90;69.60
20337;DHT22;10326;53.660;10.200;2023-03-01T09:03:12;6.00;69.80
20337;DHT22;10326;53.660;10.200;2023-03-01T09:05:38;6.00;69.90
20337;DHT22;10326;53.660;10.200;2023-03-01T09:08:05;6.10;69.90
20337;DHT22;10326;53.660;10.200;2023-03-01T09:10:38;6.10;70.00
20337;DHT22;10326;53.660;10.200;2023-03-01T09:13:05;6.20;70.20
20337;DHT22;10326;53.660;10.200;2023-03-01T09:15:32;6.20;70.00
20337;DHT22;10326;53.660;10.200;2023-03-01T09:18:00;6.30;70.20
20337;DHT22;10326;53.660;10.200;2023-03-01T09:20:27;6.30;70.40
20337;DHT22;10326;53.660;10.200;2023-03-01T09:22:54;6.40;70.30
20337;DHT22;10326;53.660;10.200;2023-03-01T09:25:21;6.40;70.40
20337;DHT22;10326;53.660;10.200;2023-03-01T09:27:50;6.50;70.50
20337;DHT22;10326;53.660;10.200;2023-03-01T09:30:18;6.50;70.60
20337;DHT22;10326;53.660;10.200;2023-03-01T09:32:45;6.60;70.50
20337;DHT22;10326;53.660;10.200;2023-03-01T09:35:12;6.60;70.40
20337;DHT22;10326;53.660;10.200;2023-03-01T09:37:39;6.70;70.50
20337;DHT22;10326;53.660;10.200;2023-03-01T09:40:12;6.70;70.50
20337;DHT22;10326;53.660;10.200;2023-03-01T09:42:50;6.80;70.70
20337;DHT22;10326;53.660;10.200;2023-03-01T09:45:26;6.80;70.70
20337;DHT22;10326;53.660;10.200;2023-03-01T09:47:56;6.90;70.70
20337;DHT22;10326;53.660;10.200;2023-03-01T09:50:26;6.90;70.40
20337;DHT22;10326;53.660;10.200;2023-03-01T09:53:02;6.90;70.50
20337;DHT22;10326;53.660;10.200;2023-03-01T09:55:34;7.00;71.30
20337;DHT22;10326;53.660;10.200;2023-03-01T09:58:33;7.00;70.60
20337;DHT22;10326;53.660;10.200;2023-03-01T10:01:15;7.00;71.10
20337;DHT22;10326;53.660;10.200;2023-03-01T10:04:26;7.10;70.80
20337;DHT22;10326;53.660;10.200;2023-03-01T10:07:05;7.20;71.10
20337;DHT22;10326;53.660;10.200;2023-03-01T10:09:42;7.20;70.80
20337;DHT22;10326;53.660;10.200;2023-03-01T10:12:14;7.20;70.60
20337;DHT22;10326;53.660;10.200;2023-03-01T10:14:53;7.30;70.70
20337;DHT22;10326;53.660;10.200;2023-03-01T10:17:30;7.30;71.20
20337;DHT22;10326;53.660;10.200;2023-03-01T10:20:17;7.40;71.20
20337;DHT22;10326;53.660;10.200;2023-03-01T10:22:46;7.40;71.60
20337;DHT22;10326;53.660;10.200;2023-03-01T10:25:24;7.50;71.10
20337;DHT22;10326;53.660;10.200;2023-03-01T10:28:05;7.50;71.50
20337;DHT22;10326;53.660;10.200;2023-03-01T10:30:40;7.60;71.60
20337;DHT22;10326;53.660;10.200;2023-03-01T10:33:15;7.60;71.30
20337;DHT22;10326;53.660;10.200;2023-03-01T10:35:44;7.70;71.60
20337;DHT22;10326;53.660;10.200;2023-03-01T10:38:13;7.70;71.40
20337;DHT22;10326;53.660;10.200;2023-03-01T10:40:53;7.80;71.60
20337;DHT22;10326;53.660;10.200;2023-03-01T10:43:22;7.80;72.10
20337;DHT22;10326;53.660;10.200;2023-03-01T10:45:52;7.90;71.60
20337;DHT22;10326;53.660;10.200;2023-03-01T10:48:21;7.90;71.70
20337;DHT22;10326;53.660;10.200;2023-03-01T10:51:05;8.00;71.80
20337;DHT22;10326;53.660;10.200;2023-03-01T10:53:35;8.00;72.30
20337;DHT22;10326;53.660;10.200;2023-03-01T10:56:05;8.00;71.90
20337;DHT22;10326;53.660;10.200;2023-03-01T10:58:35;8.00;71.90
20337;DHT22;10326;53.660;10.200;2023-03-01T11:01:06;8.10;72.00
20337;DHT22;10326;53.660;10.200;2023-03-01T11:04:09;8.10;72.10
20337;DHT22;10326;53.660;10.200;2023-03-01T11:06:39;8.20;72.60
20337;DHT22;10326;53.660;10.200;2023-03-01T11:09:14;8.20;72.10
20337;DHT22;10326;53.660;10.200;2023-03-01T11:11:42;8.20;73.00
20337;DHT22;10326;53.660;10.200;2023-03-01T11:14:16;8.30;72.30
20337;DHT22;10326;53.660;10.200;2023-03-01T11:16:47;8.30;72.60
20337;DHT22;10326;53.660;10.200;2023-03-01T11:19:19;8.30;72.40
20337;DHT22;10326;53.660;10.200;2023-03-01T11:21:59;8.40;72.40
20337;DHT22;10326;53.660;10.200;2023-03-01T11:24:39;8.40;72.60
20337;DHT22;10326;53.660;10.200;2023-03-01T11:27:16;8.50;72.50
20337;DHT22;10326;53.660;10.200;2023-03-01T11:29:47;8.50;72.40
20337;DHT22;10326;53.660;10.200;2023-03-01T11:32:21;8.60;72.20
20337;DHT22;10326;53.660;10.200;2023-03-01T11:34:54;8.60;72.20
20337;DHT22;10326;53.660;10.200;2023-03-01T11:37:32;8.60;72.20
20337;DHT22;10326;53.660;10.200;2023-03-01T11:40:10;8.70;72.30
20337;DHT22;10326;53.660;10.200;2023-03-01T11:42:54;8.70;72.20
20337;DHT22;10326;53.660;10.200;2023-03-01T11:45:32;8.70;72.20
20337;DHT22;10326;53.660;10.200;2023-03-01T11:48:27;8.80;72.20
20337;DHT22;10326;53.660;10.200;2023-03-01T11:51:09;8.80;72.30
20337;DHT22;10326;53.660;10.200;2023-03-01T11:54:00;8.90;72.10
20337;DHT22;10326;53.660;10.200;2023-03-01T11:56:35;8.90;72.20
20337;DHT22;10326;53.660;10.200;2023-03-01T11:59:29;9.00;72.10
20337;DHT22;10326;53.660;10.200;2023-03-01T12:05:55;9.10;72.40
20337;DHT22;10326;53.660;10.200;2023-03-01T12:09:01;9.20;75.00
20337;DHT22;10326;53.660;10.200;2023-03-01T12:11:51;9.30;75.10
20337;DHT22;10326;53.660;10.200;2023-03-01T12:14:48;9.50;76.80
20337;DHT22;10326;53.660;10.200;2023-03-01T12:17:43;9.70;77.40
20337;DHT22;10326;53.660;10.200;2023-03-01T12:20:28;10.00;77.60
20337;DHT22;10326;53.660;10.200;2023-03-01T12:23:35;10.20;78.20
20337;DHT22;10326;53.660;10.200;2023-03-01T12:26:30;10.60;79.50
20337;DHT22;10326;53.660;10.200;2023-03-01T12:29:12;11.00;78.80
20337;DHT22;10326;53.660;10.200;2023-03-01T12:32:12;11.30;77.60
20337;DHT22;10326;53.660;10.200;2023-03-01T12:35:00;11.70;78.20
20337;DHT22;10326;53.660;10.200;2023-03-01T12:37:46;12.10;76.20
20337;DHT22;10326;53.660;10.200;2023-03-01T12:40:50;12.40;75.90
20337;DHT22;10326;53.660;10.200;2023-03-01T12:43:40;12.70;75.10
20337;DHT22;10326;53.660;10.200;2023-03-01T12:46:24;13.00;74.10
20337;DHT22;10326;53.660;10.200;2023-03-01T12:49:02;13.30;74.40
20337;DHT22;10326;53.660;10.200;2023-03-01T12:51:37;13.50;73.50
20337;DHT22;10326;53.660;10.200;2023-03-01T12:54:14;13.80;73.30
20337;DHT22;10326;53.660;10.200;2023-03-01T12:56:45;14.10;73.10
20337;DHT22;10326;53.660;10.200;2023-03-01T12:59:21;14.30;72.20
20337;DHT22;10326;53.660;10.200;2023-03-01T13:01:56;14.60;70.30
20337;DHT22;10326;53.660;10.200;2023-03-01T13:04:40;14.80;70.80
20337;DHT22;10326;53.660;10.200;2023-03-01T13:07:25;15.00;69.00
20337;DHT22;10326;53.660;10.200;2023-03-01T13:10:03;15.10;68.90
20337;DHT22;10326;53.660;10.200;2023-03-01T13:13:10;15.30;67.90
20337;DHT22;10326;53.660;10.200;2023-03-01T13:15:40;15.40;68.00
20337;DHT22;10326;53.660;10.200;2023-03-01T13:18:27;15.50;67.30
20337;DHT22;10326;53.660;10.200;2023-03-01T13:20:56;15.60;66.60
20337;DHT22;10326;53.660;10.200;2023-03-01T13:23:27;15.70;66.20
20337;DHT22;10326;53.660;10.200;2023-03-01T13:28:51;15.80;64.80
20337;DHT22;10326;53.660;10.200;2023-03-01T13:34:49;15.90;63.60
20337;DHT22;10326;53.660;10.200;2023-03-01T13:37:24;16.00;63.70
20337;DHT22;10326;53.660;10.200;2023-03-01T13:39:55;16.00;63.00
20337;DHT22;10326;53.660;10.200;2023-03-01T13:42:48;16.10;63.00
20337;DHT22;10326;53.660;10.200;2023-03-01T13:45:20;16.10;62.00
20337;DHT22;10326;53.660;10.200;2023-03-01T13:47:54;16.20;61.90
20337;DHT22;10326;53.660;10.200;2023-03-01T13:50:25;16.20;61.20
20337;DHT22;10326;53.660;10.200;2023-03-01T13:52:58;16.30;61.20
20337;DHT22;10326;53.660;10.200;2023-03-01T13:55:34;16.30;60.90
20337;DHT22;10326;53.660;10.200;2023-03-01T13:58:15;16.40;59.80
20337;DHT22;10326;53.660;10.200;2023-03-01T14:00:45;16.40;59.50
20337;DHT22;10326;53.660;10.200;2023-03-01T14:03:14;16.40;59.80
20337;DHT22;10326;53.660;10.200;2023-03-01T14:05:43;16.50;59.40
20337;DHT22;10326;53.660;10.200;2023-03-01T14:08:26;16.50;59.60
20337;DHT22;10326;53.660;10.200;2023-03-01T14:17:37;16.60;57.60
20337;DHT22;10326;53.660;10.200;2023-03-01T14:20:14;16.60;57.30
20337;DHT22;10326;53.660;10.200;2023-03-01T14:22:45;16.50;56.90
20337;DHT22;10326;53.660;10.200;2023-03-01T14:25:25;16.40;57.10
20337;DHT22;10326;53.660;10.200;2023-03-01T14:27:59;16.30;56.30
20337;DHT22;10326;53.660;10.200;2023-03-01T14:30:32;16.10;56.20
20337;DHT22;10326;53.660;10.200;2023-03-01T14:33:05;15.90;56.40
20337;DHT22;10326;53.660;10.200;2023-03-01T14:35:35;15.80;56.20
20337;DHT22;10326;53.660;10.200;2023-03-01T14:38:03;15.60;56.40
20337;DHT22;10326;53.660;10.200;2023-03-01T14:40:32;15.50;56.70
20337;DHT22;10326;53.660;10.200;2023-03-01T14:43:08;15.30;56.50
20337;DHT22;10326;53.660;10.200;2023-03-01T14:45:37;15.10;56.30
20337;DHT22;10326;53.660;10.200;2023-03-01T14:48:07;15.00;56.60
20337;DHT22;10326;53.660;10.200;2023-03-01T14:50:35;14.90;56.50
20337;DHT22;10326;53.660;10.200;2023-03-01T14:53:15;14.70;56.70
20337;DHT22;10326;53.660;10.200;2023-03-01T14:55:46;14.60;56.60
20337;DHT22;10326;53.660;10.200;2023-03-01T14:58:19;14.50;56.90
20337;DHT22;10326;53.660;10.200;2023-03-01T15:00:50;14.40;56.70
20337;DHT22;10326;53.660;10.200;2023-03-01T15:03:26;14.30;56.90
20337;DHT22;10326;53.660;10.200;2023-03-01T15:05:57;14.20;56.90
20337;DHT22;10326;53.660;10.200;2023-03-01T15:08:26;14.10;57.30
20337;DHT22;10326;53.660;10.200;2023-03-01T15:11:04;14.00;57.40
20337;DHT22;10326;53.660;10.200;2023-03-01T15:13:33;13.90;57.30
20337;DHT22;10326;53.660;10.200;2023-03-01T15:16:07;13.80;57.40
20337;DHT22;10326;53.660;10.200;2023-03-01T15:18:38;13.70;57.30
20337;DHT22;10326;53.660;10.200;2023-03-01T15:21:16;13.60;57.40
20337;DHT22;10326;53.660;10.200;2023-03-01T15:23:49;13.50;57.50
20337;DHT22;10326;53.660;10.200;2023-03-01T15:26:23;13.40;57.50
20337;DHT22;10326;53.660;10.200;2023-03-01T15:28:55;13.30;57.50
20337;DHT22;10326;53.660;10.200;2023-03-01T15:31:26;13.20;57.70
20337;DHT22;10326;53.660;10.200;2023-03-01T15:34:10;13.10;57.70
20337;DHT22;10326;53.660;10.200;2023-03-01T15:36:42;13.00;57.60
20337;DHT22;10326;53.660;10.200;2023-03-01T15:39:34;13.00;57.80
20337;DHT22;10326;53.660;10.200;2023-03-01T15:42:10;12.90;57.80
20337;DHT22;10326;53.660;10.200;2023-03-01T15:44:40;12.80;57.70
20337;DHT22;10326;53.660;10.200;2023-03-01T15:47:28;12.70;57.60
20337;DHT22;10326;53.660;10.200;2023-03-01T15:49:59;12.70;57.50
20337;DHT22;10326;53.660;10.200;2023-03-01T15:52:31;12.60;57.50
20337;DHT22;10326;53.660;10.200;2023-03-01T15:55:12;12.60;57.70
20337;DHT22;10326;53.660;10.200;2023-03-01T15:57:43;12.40;57.20
20337;DHT22;10326;53.660;10.200;2023-03-01T16:00:12;12.40;57.40
20337;DHT22;10326;53.660;10.200;2023-03-01T16:02:41;12.30;57.20
20337;DHT22;10326;53.660;10.200;2023-03-01T16:05:18;12.30;57.30
20337;DHT22;10326;53.660;10.200;2023-03-01T16:07:48;12.20;57.20
20337;DHT22;10326;53.660;10.200;2023-03-01T16:10:16;12.10;57.40
20337;DHT22;10326;53.660;10.200;2023-03-01T16:12:45;12.00;57.50
20337;DHT22;10326;53.660;10.200;2023-03-01T16:15:18;12.00;57.90